COW3TW KLAX-KSEA
Flight info
| Callsign | COW3TW |
|---|---|
| Flight time | 2h 10m |
| Altitude | 32000 |
| Route | SUMMR2 STOKD ZONAL J501 PYE J143 EUG J126 UBG OLM2 |
| Aircraft | B77L/H-SDE2E3FGHIJ5LORVWXY/LB1D1 |
Departure
| Time | 2026-04-22 01:09 |
|---|---|
| Airport | Los Angeles International Airport (KLAX) |
Arrival
| Time | 2026-04-22 03:20 |
|---|---|
| Airport | Seattle–Tacoma International Airport (KSEA) |
| Time | Latitude | Longitude | Altitude | Speed | Heading |
|---|---|---|---|---|---|
| 2026-04-22 00:27 | 33.93468 | -118.38213 | 111 ft | 0 kts | 225° |
| 2026-04-22 01:01 | 33.93476 | -118.38202 | 110 ft | 2 kts | 244° |
| 2026-04-22 01:01 | 33.93481 | -118.38184 | 110 ft | 2 kts | 267° |
| 2026-04-22 01:01 | 33.93479 | -118.38167 | 110 ft | 2 kts | 288° |
| 2026-04-22 01:01 | 33.93473 | -118.38151 | 110 ft | 2 kts | 309° |
| 2026-04-22 01:02 | 33.93462 | -118.38138 | 110 ft | 2 kts | 330° |
| 2026-04-22 01:02 | 33.93448 | -118.38131 | 110 ft | 2 kts | 351° |
| 2026-04-22 01:02 | 33.93433 | -118.38130 | 110 ft | 2 kts | 2° |
| 2026-04-22 01:02 | 33.93420 | -118.38131 | 110 ft | 0 kts | 360° |
| 2026-04-22 01:03 | 33.93418 | -118.38131 | 110 ft | 0 kts | 359° |
| 2026-04-22 01:04 | 33.93420 | -118.38131 | 110 ft | 1 kts | 359° |
| 2026-04-22 01:04 | 33.93451 | -118.38132 | 110 ft | 7 kts | 359° |
| 2026-04-22 01:05 | 33.93485 | -118.38132 | 110 ft | 2 kts | 359° |
| 2026-04-22 01:05 | 33.93490 | -118.38133 | 110 ft | 0 kts | 359° |
| 2026-04-22 01:05 | 33.93492 | -118.38133 | 110 ft | 1 kts | 359° |
| 2026-04-22 01:05 | 33.93499 | -118.38133 | 110 ft | 0 kts | 358° |
| 2026-04-22 01:06 | 33.93505 | -118.38133 | 110 ft | 0 kts | 358° |
| 2026-04-22 01:06 | 33.93510 | -118.38133 | 110 ft | 0 kts | 358° |
| 2026-04-22 01:06 | 33.93534 | -118.38133 | 110 ft | 8 kts | 359° |
| 2026-04-22 01:07 | 33.93604 | -118.38165 | 110 ft | 13 kts | 298° |
| 2026-04-22 01:07 | 33.93616 | -118.38246 | 110 ft | 6 kts | 292° |
| 2026-04-22 01:07 | 33.93632 | -118.38269 | 110 ft | 0 kts | 323° |
| 2026-04-22 01:08 | 33.93648 | -118.38278 | 110 ft | 8 kts | 340° |
| 2026-04-22 01:08 | 33.93715 | -118.38322 | 111 ft | 14 kts | 298° |
| 2026-04-22 01:08 | 33.93711 | -118.38509 | 111 ft | 46 kts | 260° |
| 2026-04-22 01:09 | 33.93635 | -118.39243 | 116 ft | 128 kts | 262° |
| 2026-04-22 01:09 | 33.93500 | -118.40591 | 244 ft | 186 kts | 264° |
| 2026-04-22 01:09 | 33.93342 | -118.42106 | 1302 ft | 186 kts | 263° |
| 2026-04-22 01:09 | 33.93214 | -118.43625 | 2100 ft | 192 kts | 263° |
| 2026-04-22 01:10 | 33.93030 | -118.45276 | 2718 ft | 209 kts | 262° |
| 2026-04-22 01:10 | 33.92819 | -118.47074 | 3412 ft | 223 kts | 269° |
| 2026-04-22 01:10 | 33.92828 | -118.48975 | 4115 ft | 239 kts | 270° |
| 2026-04-22 01:10 | 33.92789 | -118.51015 | 4796 ft | 252 kts | 266° |
| 2026-04-22 01:11 | 33.92606 | -118.53155 | 5611 ft | 261 kts | 264° |
| 2026-04-22 01:11 | 33.92415 | -118.55265 | 6865 ft | 256 kts | 264° |
| 2026-04-22 01:11 | 33.92234 | -118.57370 | 7912 ft | 257 kts | 263° |
| 2026-04-22 01:11 | 33.92059 | -118.59469 | 8913 ft | 257 kts | 263° |
| 2026-04-22 01:12 | 33.91881 | -118.61605 | 9926 ft | 257 kts | 263° |
| 2026-04-22 01:12 | 33.91769 | -118.63741 | 10697 ft | 266 kts | 268° |
| 2026-04-22 01:12 | 33.91762 | -118.66033 | 11289 ft | 282 kts | 268° |
| 2026-04-22 01:12 | 33.91758 | -118.68446 | 11928 ft | 296 kts | 268° |
| 2026-04-22 01:13 | 33.91750 | -118.70984 | 12589 ft | 310 kts | 268° |
| 2026-04-22 01:13 | 33.91741 | -118.73601 | 13231 ft | 324 kts | 268° |
| 2026-04-22 01:13 | 33.91729 | -118.76365 | 13881 ft | 338 kts | 268° |
| 2026-04-22 01:13 | 33.91718 | -118.79237 | 14592 ft | 349 kts | 268° |
| 2026-04-22 01:14 | 33.91705 | -118.82148 | 15559 ft | 354 kts | 268° |
| 2026-04-22 01:14 | 33.91716 | -118.85115 | 16579 ft | 355 kts | 270° |
| 2026-04-22 01:14 | 33.91814 | -118.88068 | 17516 ft | 358 kts | 270° |
| 2026-04-22 01:14 | 33.91917 | -118.91048 | 18365 ft | 361 kts | 270° |
| 2026-04-22 01:15 | 33.92014 | -118.94056 | 19254 ft | 365 kts | 270° |
| 2026-04-22 01:15 | 33.92123 | -118.97097 | 20098 ft | 369 kts | 272° |
| 2026-04-22 01:15 | 33.92524 | -119.00174 | 20947 ft | 375 kts | 280° |
| 2026-04-22 01:15 | 33.93322 | -119.03168 | 21801 ft | 382 kts | 287° |
| 2026-04-22 01:16 | 33.94503 | -119.06022 | 22558 ft | 391 kts | 295° |
| 2026-04-22 01:16 | 33.95932 | -119.08826 | 23277 ft | 397 kts | 296° |
| 2026-04-22 01:16 | 33.97401 | -119.11665 | 24033 ft | 400 kts | 296° |
| 2026-04-22 01:16 | 33.98862 | -119.14494 | 24711 ft | 404 kts | 296° |
| 2026-04-22 01:17 | 34.00515 | -119.17275 | 25390 ft | 415 kts | 303° |
| 2026-04-22 01:17 | 34.02558 | -119.19814 | 26123 ft | 426 kts | 311° |
| 2026-04-22 01:17 | 34.04910 | -119.22027 | 26761 ft | 437 kts | 316° |
| 2026-04-22 01:17 | 34.07402 | -119.24167 | 27426 ft | 442 kts | 316° |
| 2026-04-22 01:18 | 34.09911 | -119.26314 | 28092 ft | 446 kts | 316° |
| 2026-04-22 01:18 | 34.12437 | -119.28481 | 28713 ft | 450 kts | 316° |
| 2026-04-22 01:18 | 34.14997 | -119.30679 | 29322 ft | 455 kts | 316° |
| 2026-04-22 01:18 | 34.17576 | -119.32896 | 30091 ft | 455 kts | 316° |
| 2026-04-22 01:19 | 34.20149 | -119.35108 | 30965 ft | 451 kts | 316° |
| 2026-04-22 01:19 | 34.22662 | -119.37270 | 31760 ft | 446 kts | 316° |
| 2026-04-22 01:19 | 34.25174 | -119.39437 | 32043 ft | 445 kts | 316° |
| 2026-04-22 01:19 | 34.27709 | -119.41627 | 32075 ft | 443 kts | 316° |
| 2026-04-22 01:20 | 34.32704 | -119.45950 | 32079 ft | 448 kts | 315° |
| 2026-04-22 01:20 | 34.37823 | -119.50388 | 32070 ft | 451 kts | 316° |
| 2026-04-22 01:21 | 34.42668 | -119.55148 | 32068 ft | 445 kts | 308° |
| 2026-04-22 01:21 | 34.46989 | -119.60443 | 32061 ft | 441 kts | 307° |
| 2026-04-22 01:22 | 34.51292 | -119.65743 | 32071 ft | 441 kts | 307° |
| 2026-04-22 01:22 | 34.55568 | -119.71014 | 32089 ft | 437 kts | 307° |
| 2026-04-22 01:23 | 34.59842 | -119.76292 | 32073 ft | 439 kts | 307° |
| 2026-04-22 01:23 | 34.64122 | -119.81584 | 32080 ft | 440 kts | 307° |
| 2026-04-22 01:24 | 34.68386 | -119.86861 | 32076 ft | 436 kts | 307° |
| 2026-04-22 01:24 | 34.72654 | -119.92155 | 32072 ft | 438 kts | 307° |
| 2026-04-22 01:25 | 34.76919 | -119.97452 | 32073 ft | 439 kts | 307° |
| 2026-04-22 01:25 | 34.81164 | -120.02732 | 32066 ft | 439 kts | 307° |
| 2026-04-22 01:26 | 34.85434 | -120.08051 | 32056 ft | 439 kts | 307° |
| 2026-04-22 01:26 | 34.89702 | -120.13376 | 32059 ft | 438 kts | 307° |
| 2026-04-22 01:27 | 34.93924 | -120.18652 | 32060 ft | 436 kts | 307° |
| 2026-04-22 01:27 | 34.98148 | -120.23940 | 32068 ft | 436 kts | 307° |
| 2026-04-22 01:28 | 35.02406 | -120.29280 | 32074 ft | 438 kts | 307° |
| 2026-04-22 01:28 | 35.06648 | -120.34605 | 32070 ft | 436 kts | 307° |
| 2026-04-22 01:29 | 35.10967 | -120.39860 | 32076 ft | 437 kts | 310° |
| 2026-04-22 01:29 | 35.15487 | -120.44862 | 32064 ft | 439 kts | 310° |
| 2026-04-22 01:30 | 35.19978 | -120.49860 | 32054 ft | 438 kts | 310° |
| 2026-04-22 01:30 | 35.24477 | -120.54890 | 32060 ft | 436 kts | 310° |
| 2026-04-22 01:31 | 35.28940 | -120.59902 | 32055 ft | 438 kts | 309° |
| 2026-04-22 01:31 | 35.33422 | -120.64945 | 32059 ft | 438 kts | 310° |
| 2026-04-22 01:32 | 35.37912 | -120.70006 | 32066 ft | 434 kts | 309° |
| 2026-04-22 01:32 | 35.42342 | -120.75011 | 32062 ft | 436 kts | 309° |
| 2026-04-22 01:33 | 35.46783 | -120.80036 | 32051 ft | 433 kts | 309° |
| 2026-04-22 01:33 | 35.51157 | -120.85059 | 32045 ft | 433 kts | 308° |
| 2026-04-22 01:34 | 35.55505 | -120.90149 | 32043 ft | 432 kts | 308° |
| 2026-04-22 01:34 | 35.59855 | -120.95245 | 32043 ft | 433 kts | 308° |
| 2026-04-22 01:35 | 35.64217 | -121.00356 | 32038 ft | 431 kts | 308° |
| 2026-04-22 01:35 | 35.68554 | -121.05448 | 32036 ft | 432 kts | 308° |
| 2026-04-22 01:36 | 35.72899 | -121.10555 | 32034 ft | 433 kts | 308° |
| 2026-04-22 01:36 | 35.77232 | -121.15654 | 32031 ft | 431 kts | 308° |
| 2026-04-22 01:37 | 35.81547 | -121.20742 | 32027 ft | 431 kts | 308° |
| 2026-04-22 01:37 | 35.85851 | -121.25823 | 32027 ft | 430 kts | 308° |
| 2026-04-22 01:38 | 35.90167 | -121.30926 | 32026 ft | 427 kts | 308° |
| 2026-04-22 01:38 | 35.94454 | -121.36007 | 32034 ft | 430 kts | 308° |
| 2026-04-22 01:39 | 35.98774 | -121.41133 | 32035 ft | 429 kts | 308° |
| 2026-04-22 01:39 | 36.03058 | -121.46223 | 32021 ft | 429 kts | 308° |
| 2026-04-22 01:40 | 36.07381 | -121.51369 | 32028 ft | 431 kts | 308° |
| 2026-04-22 01:40 | 36.11657 | -121.56464 | 32028 ft | 426 kts | 308° |
| 2026-04-22 01:41 | 36.15957 | -121.61597 | 32019 ft | 432 kts | 309° |
| 2026-04-22 01:41 | 36.20918 | -121.65986 | 32047 ft | 445 kts | 322° |
| 2026-04-22 01:42 | 36.26423 | -121.69450 | 32039 ft | 447 kts | 323° |
| 2026-04-22 01:42 | 36.31972 | -121.72927 | 32049 ft | 449 kts | 324° |
| 2026-04-22 01:43 | 36.37548 | -121.76434 | 32048 ft | 450 kts | 323° |
| 2026-04-22 01:43 | 36.43105 | -121.79939 | 32051 ft | 447 kts | 323° |
| 2026-04-22 01:44 | 36.48643 | -121.83440 | 32060 ft | 448 kts | 324° |
| 2026-04-22 01:44 | 36.54195 | -121.86955 | 32052 ft | 446 kts | 324° |
| 2026-04-22 01:45 | 36.59708 | -121.90455 | 32061 ft | 444 kts | 324° |
| 2026-04-22 01:45 | 36.65229 | -121.93967 | 32047 ft | 449 kts | 324° |
| 2026-04-22 01:46 | 36.70746 | -121.97478 | 32049 ft | 444 kts | 324° |
| 2026-04-22 01:46 | 36.76266 | -122.01000 | 32045 ft | 445 kts | 324° |
| 2026-04-22 01:47 | 36.81782 | -122.04525 | 32029 ft | 445 kts | 324° |
| 2026-04-22 01:47 | 36.87291 | -122.08051 | 32044 ft | 445 kts | 324° |
| 2026-04-22 01:48 | 36.92783 | -122.11571 | 32039 ft | 446 kts | 324° |
| 2026-04-22 01:48 | 36.98312 | -122.15121 | 32047 ft | 445 kts | 324° |
| 2026-04-22 01:49 | 37.03766 | -122.18626 | 32044 ft | 441 kts | 324° |
| 2026-04-22 01:49 | 37.09283 | -122.22185 | 32038 ft | 448 kts | 324° |
| 2026-04-22 01:50 | 37.14827 | -122.25760 | 32035 ft | 446 kts | 324° |
| 2026-04-22 01:50 | 37.20336 | -122.29321 | 32031 ft | 445 kts | 325° |
| 2026-04-22 01:51 | 37.25835 | -122.32882 | 32034 ft | 449 kts | 325° |
| 2026-04-22 01:51 | 37.31361 | -122.36464 | 32038 ft | 448 kts | 325° |
| 2026-04-22 01:52 | 37.36877 | -122.40046 | 32032 ft | 446 kts | 325° |
| 2026-04-22 01:52 | 37.42433 | -122.43663 | 32035 ft | 451 kts | 325° |
| 2026-04-22 01:53 | 37.47960 | -122.47263 | 32036 ft | 447 kts | 325° |
| 2026-04-22 01:53 | 37.53514 | -122.50889 | 32039 ft | 449 kts | 325° |
| 2026-04-22 01:54 | 37.59041 | -122.54503 | 32028 ft | 448 kts | 326° |
| 2026-04-22 01:54 | 37.64600 | -122.58145 | 32031 ft | 450 kts | 326° |
| 2026-04-22 01:55 | 37.70143 | -122.61781 | 32022 ft | 449 kts | 326° |
| 2026-04-22 01:55 | 37.75693 | -122.65430 | 31991 ft | 452 kts | 325° |
| 2026-04-22 01:56 | 37.81256 | -122.69092 | 32030 ft | 450 kts | 325° |
| 2026-04-22 01:56 | 37.86804 | -122.72751 | 32006 ft | 451 kts | 325° |
| 2026-04-22 01:57 | 37.92360 | -122.76421 | 31995 ft | 451 kts | 325° |
| 2026-04-22 01:57 | 37.97915 | -122.80096 | 32001 ft | 452 kts | 326° |
| 2026-04-22 01:58 | 38.03463 | -122.83775 | 32008 ft | 451 kts | 325° |
| 2026-04-22 01:58 | 38.09132 | -122.87248 | 32004 ft | 457 kts | 333° |
| 2026-04-22 01:59 | 38.15205 | -122.89784 | 32004 ft | 463 kts | 335° |
| 2026-04-22 01:59 | 38.21320 | -122.92293 | 32006 ft | 463 kts | 335° |
| 2026-04-22 02:00 | 38.27494 | -122.94840 | 32015 ft | 467 kts | 335° |
| 2026-04-22 02:00 | 38.33604 | -122.97365 | 32012 ft | 462 kts | 335° |
| 2026-04-22 02:01 | 38.39777 | -122.99927 | 32011 ft | 469 kts | 335° |
| 2026-04-22 02:01 | 38.45954 | -123.02494 | 32010 ft | 468 kts | 335° |
| 2026-04-22 02:02 | 38.52113 | -123.05058 | 32008 ft | 467 kts | 335° |
| 2026-04-22 02:02 | 38.58294 | -123.07639 | 32007 ft | 468 kts | 335° |
| 2026-04-22 02:03 | 38.64497 | -123.10233 | 31999 ft | 472 kts | 336° |
| 2026-04-22 02:03 | 38.70713 | -123.12836 | 31993 ft | 471 kts | 336° |
| 2026-04-22 02:04 | 38.80050 | -123.16756 | 31980 ft | 474 kts | 336° |
| 2026-04-22 02:05 | 38.86322 | -123.19395 | 31975 ft | 474 kts | 336° |
| 2026-04-22 02:05 | 38.92594 | -123.22041 | 31976 ft | 477 kts | 337° |
| 2026-04-22 02:06 | 38.98864 | -123.24687 | 31978 ft | 475 kts | 337° |
| 2026-04-22 02:06 | 39.05224 | -123.27045 | 31986 ft | 482 kts | 346° |
| 2026-04-22 02:07 | 39.12019 | -123.27565 | 31994 ft | 490 kts | 354° |
| 2026-04-22 02:07 | 39.18836 | -123.27676 | 31992 ft | 493 kts | 354° |
| 2026-04-22 02:08 | 39.25670 | -123.27791 | 31986 ft | 492 kts | 354° |
| 2026-04-22 02:08 | 39.32554 | -123.27911 | 31982 ft | 496 kts | 355° |
| 2026-04-22 02:09 | 39.39410 | -123.28029 | 31980 ft | 495 kts | 355° |
| 2026-04-22 02:09 | 39.46315 | -123.28151 | 31975 ft | 495 kts | 355° |
| 2026-04-22 02:10 | 39.53213 | -123.28274 | 31977 ft | 496 kts | 355° |
| 2026-04-22 02:10 | 39.60101 | -123.28397 | 31978 ft | 496 kts | 355° |
| 2026-04-22 02:11 | 39.67021 | -123.28522 | 31979 ft | 498 kts | 355° |
| 2026-04-22 02:11 | 39.73951 | -123.28647 | 31983 ft | 499 kts | 356° |
| 2026-04-22 02:12 | 39.80880 | -123.28772 | 31979 ft | 499 kts | 355° |
| 2026-04-22 02:12 | 39.87800 | -123.28899 | 31975 ft | 500 kts | 356° |
| 2026-04-22 02:13 | 39.94790 | -123.29026 | 31975 ft | 500 kts | 356° |
| 2026-04-22 02:13 | 40.01710 | -123.29152 | 31971 ft | 502 kts | 356° |
| 2026-04-22 02:14 | 40.08720 | -123.29280 | 31955 ft | 500 kts | 356° |
| 2026-04-22 02:14 | 40.15717 | -123.29408 | 31943 ft | 503 kts | 356° |
| 2026-04-22 02:15 | 40.22694 | -123.29536 | 31931 ft | 502 kts | 356° |
| 2026-04-22 02:15 | 40.29723 | -123.29665 | 31922 ft | 504 kts | 357° |
| 2026-04-22 02:16 | 40.36706 | -123.29793 | 31935 ft | 505 kts | 357° |
| 2026-04-22 02:16 | 40.43733 | -123.29923 | 31936 ft | 507 kts | 357° |
| 2026-04-22 02:17 | 40.50768 | -123.30053 | 31949 ft | 506 kts | 357° |
| 2026-04-22 02:17 | 40.57858 | -123.30184 | 31952 ft | 507 kts | 357° |
| 2026-04-22 02:18 | 40.64875 | -123.30314 | 31958 ft | 507 kts | 358° |
| 2026-04-22 02:18 | 40.71914 | -123.30445 | 31961 ft | 507 kts | 358° |
| 2026-04-22 02:19 | 40.78987 | -123.30576 | 31973 ft | 507 kts | 358° |
| 2026-04-22 02:19 | 40.86034 | -123.30708 | 31959 ft | 508 kts | 358° |
| 2026-04-22 02:20 | 40.93080 | -123.30840 | 31957 ft | 507 kts | 358° |
| 2026-04-22 02:20 | 41.00157 | -123.30974 | 31956 ft | 507 kts | 358° |
| 2026-04-22 02:21 | 41.07202 | -123.31107 | 31942 ft | 508 kts | 358° |
| 2026-04-22 02:21 | 41.14291 | -123.31241 | 31957 ft | 511 kts | 358° |
| 2026-04-22 02:22 | 41.21391 | -123.31375 | 31945 ft | 508 kts | 358° |
| 2026-04-22 02:22 | 41.28437 | -123.31509 | 31944 ft | 511 kts | 358° |
| 2026-04-22 02:23 | 41.35554 | -123.31644 | 31949 ft | 511 kts | 358° |
| 2026-04-22 02:23 | 41.42652 | -123.31778 | 31927 ft | 511 kts | 359° |
| 2026-04-22 02:24 | 41.49772 | -123.31915 | 31936 ft | 515 kts | 359° |
| 2026-04-22 02:24 | 41.56918 | -123.32052 | 31927 ft | 512 kts | 359° |
| 2026-04-22 02:25 | 41.64065 | -123.32188 | 31917 ft | 516 kts | 359° |
| 2026-04-22 02:25 | 41.71212 | -123.32326 | 31918 ft | 514 kts | 359° |
| 2026-04-22 02:26 | 41.78362 | -123.32463 | 31916 ft | 514 kts | 359° |
| 2026-04-22 02:26 | 41.85549 | -123.32601 | 31894 ft | 515 kts | 359° |
| 2026-04-22 02:27 | 41.92677 | -123.32738 | 31891 ft | 514 kts | 360° |
| 2026-04-22 02:27 | 41.99824 | -123.32875 | 31898 ft | 515 kts | 360° |
| 2026-04-22 02:28 | 42.06961 | -123.33013 | 31904 ft | 515 kts | 0° |
| 2026-04-22 02:28 | 42.14185 | -123.33153 | 31910 ft | 517 kts | 0° |
| 2026-04-22 02:29 | 42.21388 | -123.33293 | 31917 ft | 518 kts | 0° |
| 2026-04-22 02:29 | 42.28582 | -123.33433 | 31932 ft | 518 kts | 0° |
| 2026-04-22 02:30 | 42.35760 | -123.33574 | 31929 ft | 520 kts | 0° |
| 2026-04-22 02:30 | 42.42972 | -123.33715 | 31936 ft | 519 kts | 1° |
| 2026-04-22 02:31 | 42.50216 | -123.33857 | 31916 ft | 521 kts | 1° |
| 2026-04-22 02:31 | 42.57416 | -123.33999 | 31914 ft | 523 kts | 1° |
| 2026-04-22 02:32 | 42.64681 | -123.34143 | 31932 ft | 522 kts | 1° |
| 2026-04-22 02:32 | 42.71938 | -123.34283 | 31924 ft | 522 kts | 1° |
| 2026-04-22 02:33 | 42.79214 | -123.34425 | 31935 ft | 524 kts | 2° |
| 2026-04-22 02:33 | 42.86487 | -123.34570 | 31940 ft | 523 kts | 2° |
| 2026-04-22 02:34 | 42.93782 | -123.34715 | 31914 ft | 523 kts | 2° |
| 2026-04-22 02:34 | 43.01061 | -123.34862 | 31934 ft | 524 kts | 2° |
| 2026-04-22 02:35 | 43.08318 | -123.35008 | 31948 ft | 523 kts | 2° |
| 2026-04-22 02:35 | 43.15654 | -123.35154 | 31934 ft | 523 kts | 2° |
| 2026-04-22 02:36 | 43.22973 | -123.34589 | 31942 ft | 524 kts | 9° |
| 2026-04-22 02:36 | 43.30188 | -123.33598 | 31955 ft | 522 kts | 10° |
| 2026-04-22 02:37 | 43.37431 | -123.32602 | 31930 ft | 524 kts | 9° |
| 2026-04-22 02:37 | 43.44677 | -123.31607 | 31938 ft | 524 kts | 10° |
| 2026-04-22 02:38 | 43.51950 | -123.30608 | 31924 ft | 524 kts | 10° |
| 2026-04-22 02:38 | 43.59206 | -123.29608 | 31922 ft | 526 kts | 10° |
| 2026-04-22 02:39 | 43.66468 | -123.28608 | 31924 ft | 524 kts | 10° |
| 2026-04-22 02:39 | 43.73698 | -123.27608 | 31923 ft | 526 kts | 10° |
| 2026-04-22 02:40 | 43.80997 | -123.26598 | 31918 ft | 525 kts | 11° |
| 2026-04-22 02:40 | 43.88206 | -123.25597 | 31919 ft | 528 kts | 11° |
| 2026-04-22 02:41 | 43.95508 | -123.24581 | 31928 ft | 525 kts | 11° |
| 2026-04-22 02:41 | 44.02802 | -123.23563 | 31945 ft | 527 kts | 11° |
| 2026-04-22 02:42 | 44.10044 | -123.22548 | 31937 ft | 525 kts | 12° |
| 2026-04-22 02:42 | 44.17133 | -123.20371 | 31929 ft | 519 kts | 21° |
| 2026-04-22 02:43 | 44.24144 | -123.17720 | 31918 ft | 517 kts | 21° |
| 2026-04-22 02:43 | 44.31110 | -123.15076 | 31921 ft | 519 kts | 21° |
| 2026-04-22 02:44 | 44.38045 | -123.12441 | 31918 ft | 517 kts | 21° |
| 2026-04-22 02:44 | 44.44968 | -123.09804 | 31920 ft | 516 kts | 21° |
| 2026-04-22 02:45 | 44.51926 | -123.07147 | 31902 ft | 519 kts | 21° |
| 2026-04-22 02:45 | 44.58843 | -123.04501 | 31912 ft | 517 kts | 21° |
| 2026-04-22 02:46 | 44.65796 | -123.01833 | 31902 ft | 516 kts | 21° |
| 2026-04-22 02:46 | 44.72680 | -122.99185 | 31903 ft | 519 kts | 21° |
| 2026-04-22 02:47 | 44.79623 | -122.96509 | 31918 ft | 516 kts | 21° |
| 2026-04-22 02:47 | 44.86580 | -122.93819 | 31917 ft | 518 kts | 21° |
| 2026-04-22 02:48 | 44.93503 | -122.91138 | 31912 ft | 518 kts | 21° |
| 2026-04-22 02:48 | 45.00434 | -122.88447 | 31921 ft | 513 kts | 21° |
| 2026-04-22 02:49 | 45.07358 | -122.85748 | 31920 ft | 518 kts | 21° |
| 2026-04-22 02:49 | 45.14311 | -122.83035 | 31908 ft | 516 kts | 21° |
| 2026-04-22 02:50 | 45.21280 | -122.80306 | 31907 ft | 520 kts | 21° |
| 2026-04-22 02:50 | 45.28243 | -122.77574 | 31906 ft | 519 kts | 21° |
| 2026-04-22 02:51 | 45.35187 | -122.74844 | 31909 ft | 517 kts | 21° |
| 2026-04-22 02:51 | 45.42206 | -122.72075 | 31904 ft | 520 kts | 20° |
| 2026-04-22 02:52 | 45.49191 | -122.69313 | 31902 ft | 520 kts | 20° |
| 2026-04-22 02:52 | 45.56202 | -122.66534 | 31904 ft | 520 kts | 21° |
| 2026-04-22 02:53 | 45.63179 | -122.63761 | 31906 ft | 522 kts | 21° |
| 2026-04-22 02:53 | 45.70164 | -122.60998 | 31893 ft | 522 kts | 18° |
| 2026-04-22 02:54 | 45.77486 | -122.59959 | 31893 ft | 532 kts | 0° |
| 2026-04-22 02:54 | 45.84850 | -122.61460 | 31801 ft | 532 kts | 352° |
| 2026-04-22 02:54 | 45.88504 | -122.62402 | 31106 ft | 533 kts | 353° |
| 2026-04-22 02:55 | 45.92176 | -122.63343 | 30238 ft | 534 kts | 353° |
| 2026-04-22 02:55 | 45.95810 | -122.64270 | 29712 ft | 527 kts | 353° |
| 2026-04-22 02:55 | 45.99401 | -122.65181 | 29207 ft | 521 kts | 353° |
| 2026-04-22 02:55 | 46.02945 | -122.66077 | 28690 ft | 515 kts | 353° |
| 2026-04-22 02:56 | 46.06463 | -122.66965 | 28158 ft | 509 kts | 353° |
| 2026-04-22 02:56 | 46.09925 | -122.67835 | 27646 ft | 502 kts | 354° |
| 2026-04-22 02:56 | 46.13342 | -122.68571 | 27117 ft | 495 kts | 356° |
| 2026-04-22 02:56 | 46.16728 | -122.69228 | 26591 ft | 489 kts | 356° |
| 2026-04-22 02:57 | 46.20131 | -122.69888 | 26055 ft | 482 kts | 356° |
| 2026-04-22 02:57 | 46.23416 | -122.70529 | 25540 ft | 476 kts | 356° |
| 2026-04-22 02:57 | 46.26689 | -122.71171 | 25019 ft | 471 kts | 356° |
| 2026-04-22 02:57 | 46.29928 | -122.71809 | 24491 ft | 465 kts | 356° |
| 2026-04-22 02:58 | 46.33084 | -122.72250 | 23987 ft | 456 kts | 2° |
| 2026-04-22 02:58 | 46.36220 | -122.72385 | 23484 ft | 450 kts | 4° |
| 2026-04-22 02:58 | 46.39349 | -122.72491 | 22983 ft | 445 kts | 3° |
| 2026-04-22 02:58 | 46.42427 | -122.72596 | 22478 ft | 441 kts | 3° |
| 2026-04-22 02:59 | 46.45473 | -122.72701 | 21956 ft | 437 kts | 2° |
| 2026-04-22 02:59 | 46.48502 | -122.72807 | 21441 ft | 433 kts | 2° |
| 2026-04-22 02:59 | 46.51501 | -122.72913 | 20934 ft | 430 kts | 2° |
| 2026-04-22 02:59 | 46.54488 | -122.73019 | 20440 ft | 426 kts | 1° |
| 2026-04-22 03:00 | 46.57431 | -122.73124 | 19908 ft | 423 kts | 1° |
| 2026-04-22 03:00 | 46.60344 | -122.73228 | 19382 ft | 420 kts | 0° |
| 2026-04-22 03:00 | 46.63256 | -122.73332 | 18863 ft | 416 kts | 360° |
| 2026-04-22 03:00 | 46.66148 | -122.73436 | 18356 ft | 413 kts | 359° |
| 2026-04-22 03:01 | 46.69014 | -122.73540 | 17837 ft | 410 kts | 359° |
| 2026-04-22 03:01 | 46.71850 | -122.73643 | 17394 ft | 404 kts | 359° |
| 2026-04-22 03:01 | 46.74576 | -122.73575 | 17273 ft | 384 kts | 8° |
| 2026-04-22 03:01 | 46.77090 | -122.72817 | 17292 ft | 358 kts | 20° |
| 2026-04-22 03:02 | 46.79317 | -122.71383 | 17162 ft | 345 kts | 31° |
| 2026-04-22 03:02 | 46.81371 | -122.69589 | 16647 ft | 345 kts | 34° |
| 2026-04-22 03:02 | 46.83360 | -122.67667 | 16134 ft | 346 kts | 37° |
| 2026-04-22 03:02 | 46.85288 | -122.65619 | 15687 ft | 344 kts | 38° |
| 2026-04-22 03:03 | 46.87225 | -122.63543 | 15231 ft | 341 kts | 38° |
| 2026-04-22 03:03 | 46.89105 | -122.61471 | 14835 ft | 338 kts | 39° |
| 2026-04-22 03:03 | 46.90957 | -122.59390 | 14445 ft | 334 kts | 39° |
| 2026-04-22 03:03 | 46.92785 | -122.57331 | 14228 ft | 318 kts | 36° |
| 2026-04-22 03:04 | 46.94683 | -122.55908 | 14165 ft | 305 kts | 21° |
| 2026-04-22 03:04 | 46.96703 | -122.54919 | 13823 ft | 302 kts | 18° |
| 2026-04-22 03:04 | 46.98706 | -122.54038 | 13433 ft | 301 kts | 18° |
| 2026-04-22 03:04 | 47.00721 | -122.53164 | 13057 ft | 300 kts | 17° |
| 2026-04-22 03:05 | 47.02697 | -122.52304 | 12699 ft | 298 kts | 17° |
| 2026-04-22 03:05 | 47.04689 | -122.51434 | 12341 ft | 296 kts | 17° |
| 2026-04-22 03:05 | 47.06661 | -122.50572 | 11986 ft | 294 kts | 17° |
| 2026-04-22 03:05 | 47.08627 | -122.49902 | 11631 ft | 292 kts | 8° |
| 2026-04-22 03:06 | 47.10567 | -122.49525 | 11294 ft | 290 kts | 7° |
| 2026-04-22 03:06 | 47.12557 | -122.49174 | 10948 ft | 288 kts | 6° |
| 2026-04-22 03:06 | 47.14514 | -122.48823 | 10603 ft | 286 kts | 6° |
| 2026-04-22 03:06 | 47.16428 | -122.48476 | 10265 ft | 285 kts | 6° |
| 2026-04-22 03:07 | 47.18375 | -122.48120 | 10003 ft | 279 kts | 6° |
| 2026-04-22 03:07 | 47.20284 | -122.47789 | 9894 ft | 272 kts | 5° |
| 2026-04-22 03:07 | 47.22173 | -122.47510 | 9611 ft | 271 kts | 5° |
| 2026-04-22 03:07 | 47.24036 | -122.47234 | 9353 ft | 268 kts | 5° |
| 2026-04-22 03:08 | 47.25901 | -122.46951 | 9118 ft | 268 kts | 5° |
| 2026-04-22 03:08 | 47.27786 | -122.46664 | 8884 ft | 268 kts | 5° |
| 2026-04-22 03:08 | 47.29628 | -122.46382 | 8656 ft | 267 kts | 5° |
| 2026-04-22 03:08 | 47.31466 | -122.46101 | 8429 ft | 262 kts | 5° |
| 2026-04-22 03:09 | 47.33261 | -122.45826 | 8208 ft | 257 kts | 5° |
| 2026-04-22 03:09 | 47.35039 | -122.45565 | 7986 ft | 252 kts | 2° |
| 2026-04-22 03:09 | 47.36779 | -122.45509 | 7725 ft | 253 kts | 359° |
| 2026-04-22 03:09 | 47.38542 | -122.45516 | 7393 ft | 253 kts | 359° |
| 2026-04-22 03:10 | 47.40304 | -122.45523 | 7070 ft | 253 kts | 359° |
| 2026-04-22 03:10 | 47.42075 | -122.45526 | 6792 ft | 250 kts | 359° |
| 2026-04-22 03:10 | 47.43788 | -122.45527 | 6654 ft | 246 kts | 359° |
| 2026-04-22 03:10 | 47.45504 | -122.45528 | 6511 ft | 246 kts | 360° |
| 2026-04-22 03:11 | 47.47192 | -122.45528 | 6346 ft | 239 kts | 360° |
| 2026-04-22 03:11 | 47.48838 | -122.45529 | 6185 ft | 233 kts | 360° |
| 2026-04-22 03:11 | 47.50475 | -122.45530 | 6030 ft | 232 kts | 0° |
| 2026-04-22 03:11 | 47.52075 | -122.45542 | 5800 ft | 229 kts | 359° |
| 2026-04-22 03:12 | 47.53677 | -122.45594 | 5441 ft | 231 kts | 358° |
| 2026-04-22 03:12 | 47.56891 | -122.45692 | 4697 ft | 234 kts | 358° |
| 2026-04-22 03:12 | 47.58525 | -122.45739 | 4321 ft | 236 kts | 358° |
| 2026-04-22 03:13 | 47.60175 | -122.45785 | 3965 ft | 233 kts | 357° |
| 2026-04-22 03:13 | 47.61737 | -122.45830 | 3981 ft | 221 kts | 358° |
| 2026-04-22 03:13 | 47.63263 | -122.45874 | 3977 ft | 216 kts | 358° |
| 2026-04-22 03:13 | 47.64758 | -122.45916 | 3980 ft | 215 kts | 358° |
| 2026-04-22 03:14 | 47.66246 | -122.45602 | 3981 ft | 217 kts | 23° |
| 2026-04-22 03:14 | 47.67382 | -122.44167 | 3900 ft | 221 kts | 55° |
| 2026-04-22 03:14 | 47.67844 | -122.41977 | 3557 ft | 226 kts | 82° |
| 2026-04-22 03:14 | 47.67942 | -122.39678 | 3232 ft | 221 kts | 84° |
| 2026-04-22 03:15 | 47.68028 | -122.37414 | 3186 ft | 221 kts | 84° |
| 2026-04-22 03:15 | 47.68033 | -122.35136 | 3180 ft | 221 kts | 97° |
| 2026-04-22 03:15 | 47.67434 | -122.33112 | 3181 ft | 226 kts | 129° |
| 2026-04-22 03:15 | 47.66084 | -122.31820 | 3177 ft | 227 kts | 165° |
| 2026-04-22 03:16 | 47.64499 | -122.31555 | 3183 ft | 227 kts | 180° |
| 2026-04-22 03:16 | 47.62918 | -122.31553 | 3184 ft | 226 kts | 183° |
| 2026-04-22 03:16 | 47.61362 | -122.31596 | 3182 ft | 225 kts | 184° |
| 2026-04-22 03:16 | 47.59781 | -122.31631 | 3095 ft | 229 kts | 183° |
| 2026-04-22 03:17 | 47.58190 | -122.31647 | 2784 ft | 225 kts | 183° |
| 2026-04-22 03:17 | 47.56658 | -122.31666 | 2498 ft | 217 kts | 183° |
| 2026-04-22 03:17 | 47.55222 | -122.31690 | 2197 ft | 193 kts | 183° |
| 2026-04-22 03:17 | 47.53963 | -122.31712 | 1969 ft | 169 kts | 182° |
| 2026-04-22 03:18 | 47.52826 | -122.31725 | 1767 ft | 159 kts | 181° |
| 2026-04-22 03:18 | 47.51716 | -122.31735 | 1556 ft | 156 kts | 181° |
| 2026-04-22 03:18 | 47.50646 | -122.31749 | 1339 ft | 153 kts | 181° |
| 2026-04-22 03:18 | 47.49578 | -122.31767 | 1131 ft | 151 kts | 181° |
| 2026-04-22 03:19 | 47.48538 | -122.31767 | 967 ft | 150 kts | 180° |
| 2026-04-22 03:19 | 47.47491 | -122.31767 | 773 ft | 150 kts | 182° |
| 2026-04-22 03:19 | 47.46444 | -122.31784 | 507 ft | 148 kts | 181° |
| 2026-04-22 03:19 | 47.45538 | -122.31795 | 449 ft | 92 kts | 179° |
| 2026-04-22 03:20 | 47.45130 | -122.31800 | 449 ft | 46 kts | 180° |
| 2026-04-22 03:20 | 47.44842 | -122.31705 | 449 ft | 34 kts | 154° |
| 2026-04-22 03:20 | 47.44757 | -122.31632 | 449 ft | 0 kts | 144° |
| 2026-04-22 03:20 | 47.44756 | -122.31632 | 449 ft | 0 kts | 144° |
| 2026-04-22 03:21 | 47.44746 | -122.31619 | 448 ft | 6 kts | 143° |
| 2026-04-22 03:21 | 47.44689 | -122.31535 | 448 ft | 16 kts | 124° |
| 2026-04-22 03:22 | 47.44656 | -122.31377 | 448 ft | 16 kts | 94° |
| 2026-04-22 03:22 | 47.44649 | -122.31205 | 448 ft | 17 kts | 97° |
| 2026-04-22 03:22 | 47.44582 | -122.31046 | 448 ft | 20 kts | 144° |
| 2026-04-22 03:22 | 47.44471 | -122.30945 | 448 ft | 17 kts | 152° |
| 2026-04-22 03:23 | 47.44378 | -122.30847 | 448 ft | 15 kts | 125° |
| 2026-04-22 03:23 | 47.44357 | -122.30707 | 448 ft | 11 kts | 79° |
| 2026-04-22 03:23 | 47.44412 | -122.30638 | 448 ft | 10 kts | 10° |
| 2026-04-22 03:23 | 47.44494 | -122.30632 | 448 ft | 11 kts | 360° |
| 2026-04-22 03:24 | 47.44579 | -122.30632 | 448 ft | 12 kts | 1° |
| 2026-04-22 03:24 | 47.44672 | -122.30632 | 448 ft | 13 kts | 360° |
| 2026-04-22 03:24 | 47.44774 | -122.30633 | 448 ft | 16 kts | 0° |
| 2026-04-22 03:24 | 47.44904 | -122.30629 | 448 ft | 21 kts | 0° |
| 2026-04-22 03:25 | 47.45055 | -122.30629 | 448 ft | 21 kts | 1° |
| 2026-04-22 03:25 | 47.45213 | -122.30626 | 448 ft | 24 kts | 1° |
| 2026-04-22 03:25 | 47.45380 | -122.30622 | 448 ft | 23 kts | 360° |
| 2026-04-22 03:25 | 47.45535 | -122.30624 | 448 ft | 21 kts | 0° |
| 2026-04-22 03:26 | 47.45695 | -122.30621 | 448 ft | 25 kts | 359° |
| 2026-04-22 03:26 | 47.45874 | -122.30622 | 448 ft | 24 kts | 1° |
| 2026-04-22 03:26 | 47.46040 | -122.30617 | 448 ft | 23 kts | 0° |
| 2026-04-22 03:26 | 47.46145 | -122.30617 | 448 ft | 12 kts | 12° |
| 2026-04-22 03:27 | 47.46184 | -122.30518 | 448 ft | 12 kts | 84° |
| 2026-04-22 03:27 | 47.46186 | -122.30419 | 448 ft | 6 kts | 89° |
| 2026-04-22 03:27 | 47.46186 | -122.30353 | 448 ft | 6 kts | 93° |
| 2026-04-22 03:27 | 47.46189 | -122.30288 | 448 ft | 6 kts | 62° |
| 2026-04-22 03:28 | 47.46196 | -122.30275 | 448 ft | 1 kts | 46° |
| 2026-04-22 03:28 | 47.46204 | -122.30272 | 448 ft | 2 kts | 0° |
| 2026-04-22 03:28 | 47.46223 | -122.30273 | 448 ft | 3 kts | 359° |
| 2026-04-22 03:28 | 47.46224 | -122.30273 | 448 ft | 0 kts | 359° |
| 2026-04-22 03:29 | 47.46233 | -122.30273 | 448 ft | 3 kts | 359° |
| 2026-04-22 03:29 | 47.46262 | -122.30273 | 448 ft | 4 kts | 360° |
| 2026-04-22 03:29 | 47.46267 | -122.30273 | 448 ft | 0 kts | 0° |